Time;durP1;ratioP1;P1;durP2;ratioP2;P2;SDS_P1;SDS_P2;PMS_P1;PMS_P2;Temp;Humidity;BMP_temperature;BMP_pressure;BME280_temperature;BME280_humidity;BME280_pressure;Samples;Min_cycle;Max_cycle;Signal;HPM_P1;HPM_P2
2024/04/13 00:01:41;;;;;;;1999.90;999.90;;;13.90;86.40;;;;;;6477100;22;20716;-82
2024/04/13 00:04:23;;;;;;;1999.90;999.90;;;13.90;86.50;;;;;;6390549;22;20237;-81
2024/04/13 00:07:28;;;;;;;1999.90;999.90;;;13.80;87.00;;;;;;6474990;22;20214;-80
2024/04/13 00:10:18;;;;;;;1999.90;999.90;;;13.70;87.40;;;;;;6474078;22;20210;-80
2024/04/13 00:13:30;;;;;;;1999.90;999.90;;;13.70;87.50;;;;;;6413837;22;20218;-80
2024/04/13 00:16:13;;;;;;;1999.90;999.90;;;13.70;87.90;;;;;;6475281;22;20269;-82
2024/04/13 00:19:36;;;;;;;1999.90;999.90;;;13.60;88.10;;;;;;6471681;22;20263;-81
2024/04/13 00:22:24;;;;;;;1999.90;999.90;;;13.60;88.80;;;;;;6476533;22;20616;-80
2024/04/13 00:25:02;;;;;;;1999.90;999.90;;;13.60;88.70;;;;;;6388349;22;20230;-81
2024/04/13 00:28:21;;;;;;;1999.90;999.90;;;13.60;89.00;;;;;;6426485;22;20678;-80
2024/04/13 00:31:15;;;;;;;1999.90;999.90;;;13.50;89.30;;;;;;6259501;22;20256;-83
2024/04/13 00:34:04;;;;;;;1999.90;999.90;;;13.60;89.20;;;;;;6348669;22;20226;-80
2024/04/13 00:36:30;;;;;;;1999.90;999.90;;;13.60;88.70;;;;;;6431802;22;20263;-82
2024/04/13 00:38:55;;;;;;;1999.90;999.90;;;13.60;89.20;;;;;;6432463;22;20224;-79
2024/04/13 00:41:21;;;;;;;1999.90;999.90;;;13.70;88.30;;;;;;6432778;22;20650;-80
2024/04/13 00:43:46;;;;;;;1999.90;999.90;;;13.60;88.10;;;;;;6433003;22;20285;-81
2024/04/13 00:46:23;;;;;;;1999.90;999.90;;;13.60;88.00;;;;;;6476296;22;20234;-81
2024/04/13 00:48:50;;;;;;;1999.90;999.90;;;13.50;87.80;;;;;;6477321;22;20222;-80
2024/04/13 00:51:17;;;;;;;1999.90;999.90;;;13.50;87.70;;;;;;6432411;22;20223;-80
2024/04/13 00:53:44;;;;;;;1999.90;999.90;;;13.50;87.60;;;;;;6432706;22;20294;-80
2024/04/13 00:56:11;;;;;;;1999.90;999.90;;;13.50;87.50;;;;;;6476046;22;20230;-81
2024/04/13 00:58:38;;;;;;;1999.90;999.90;;;13.40;87.50;;;;;;6432623;22;20293;-81
2024/04/13 01:01:05;;;;;;;1999.90;999.90;;;13.40;87.40;;;;;;6434991;22;20248;-81
2024/04/13 01:03:31;;;;;;;1999.90;999.90;;;13.40;87.40;;;;;;6479427;22;20225;-81
2024/04/13 01:05:57;;;;;;;1999.90;999.90;;;13.30;87.40;;;;;;6434201;22;20575;-80
2024/04/13 01:08:23;;;;;;;1999.90;999.90;;;13.30;87.60;;;;;;6434792;22;20237;-81
2024/04/13 01:10:49;;;;;;;1999.90;999.90;;;13.20;87.90;;;;;;6434791;22;20234;-81
2024/04/13 01:13:16;;;;;;;1999.90;999.90;;;13.20;88.30;;;;;;6434797;22;20230;-80
2024/04/13 01:15:42;;;;;;;1999.90;999.90;;;13.10;88.40;;;;;;6434970;22;20277;-79
2024/04/13 01:18:10;;;;;;;1999.90;999.90;;;13.10;88.30;;;;;;6433837;22;20215;-81
2024/04/13 01:20:39;;;;;;;1999.90;999.90;;;13.10;88.20;;;;;;6479617;22;20237;-81
2024/04/13 01:23:06;;;;;;;1999.90;999.90;;;13.10;88.10;;;;;;6434593;22;20289;-80
2024/04/13 01:25:33;;;;;;;1999.90;999.90;;;13.10;88.10;;;;;;6470732;22;20230;-81
2024/04/13 01:27:59;;;;;;;1999.90;999.90;;;13.00;88.10;;;;;;6384023;22;20228;-81
2024/04/13 01:30:25;;;;;;;1999.90;999.90;;;13.00;88.30;;;;;;6428710;22;20314;-81
2024/04/13 01:32:53;;;;;;;1999.90;999.90;;;12.90;88.50;;;;;;6386020;22;20242;-80
2024/04/13 01:35:19;;;;;;;1999.90;999.90;;;12.90;88.60;;;;;;6389390;22;20241;-81
2024/04/13 01:37:45;;;;;;;1999.90;999.90;;;12.90;88.60;;;;;;6427768;22;20733;-80
2024/04/13 01:40:12;;;;;;;1999.90;999.90;;;12.80;88.40;;;;;;6428419;22;20269;-80
2024/04/13 01:42:41;;;;;;;1999.90;999.90;;;12.80;88.40;;;;;;6384441;22;20255;-80
2024/04/13 01:45:07;;;;;;;1999.90;999.90;;;12.80;88.40;;;;;;6384214;22;20720;-80
2024/04/13 01:47:33;;;;;;;1999.90;999.90;;;12.70;88.30;;;;;;6383159;22;20325;-81
2024/04/13 01:49:58;;;;;;;1999.90;999.90;;;12.70;88.10;;;;;;6384558;22;20235;-80
2024/04/13 01:52:24;;;;;;;1999.90;999.90;;;12.70;88.60;;;;;;6428417;22;20254;-82
2024/04/13 01:54:50;;;;;;;1999.90;999.90;;;12.70;87.80;;;;;;6384045;22;20247;-80
2024/04/13 01:57:16;;;;;;;1999.90;999.90;;;12.60;87.70;;;;;;6383157;22;20294;-81
2024/04/13 01:59:43;;;;;;;1999.90;999.90;;;12.60;87.90;;;;;;6384298;22;20216;-80
2024/04/13 02:02:09;;;;;;;1999.90;999.90;;;12.50;88.20;;;;;;6384138;22;20266;-82
2024/04/13 02:04:35;;;;;;;1999.90;999.90;;;12.50;88.60;;;;;;6427982;22;20710;-80
2024/04/13 02:07:01;;;;;;;1999.90;999.90;;;12.50;88.80;;;;;;6426883;22;20563;-80
2024/04/13 02:09:28;;;;;;;1999.90;999.90;;;12.50;88.90;;;;;;6384544;22;20263;-80
2024/04/13 02:11:54;;;;;;;1999.90;999.90;;;12.50;89.10;;;;;;6427115;22;20215;-80
2024/04/13 02:14:20;;;;;;;1999.90;999.90;;;12.50;89.20;;;;;;6384113;22;20274;-80
2024/04/13 02:16:46;;;;;;;1999.90;999.90;;;12.50;89.30;;;;;;6383095;22;20561;-79
2024/04/13 02:19:14;;;;;;;1999.90;999.90;;;12.50;89.30;;;;;;6384232;22;20227;-80
2024/04/13 02:21:40;;;;;;;1999.90;999.90;;;12.50;89.10;;;;;;6428180;22;20251;-80
2024/04/13 02:24:06;;;;;;;1999.90;999.90;;;12.50;89.60;;;;;;6428000;22;20215;-80
2024/04/13 02:26:31;;;;;;;1999.90;999.90;;;12.50;88.80;;;;;;6426820;22;20326;-81
2024/04/13 02:28:58;;;;;;;1999.90;999.90;;;12.40;88.50;;;;;;6427910;22;20216;-81
2024/04/13 02:31:24;;;;;;;1999.90;999.90;;;12.40;88.50;;;;;;6427691;22;20223;-81
2024/04/13 02:33:50;;;;;;;1999.90;999.90;;;12.40;88.50;;;;;;6384012;22;20317;-80
2024/04/13 02:36:15;;;;;;;1999.90;999.90;;;12.30;88.50;;;;;;6382750;22;20247;-81
2024/04/13 02:38:44;;;;;;;1999.90;999.90;;;12.30;88.50;;;;;;6384252;22;20643;-80
2024/04/13 02:41:10;;;;;;;1999.90;999.90;;;12.20;88.30;;;;;;6427598;22;20219;-80
2024/04/13 02:43:38;;;;;;;1999.90;999.90;;;12.20;88.40;;;;;;6384367;22;20314;-80
2024/04/13 02:46:11;;;;;;;1999.90;999.90;;;12.20;88.50;;;;;;6426938;22;20240;-81
2024/04/13 02:48:47;;;;;;;1999.90;999.90;;;12.10;88.50;;;;;;6428047;22;20300;-80
2024/04/13 02:51:14;;;;;;;1999.90;999.90;;;12.10;88.40;;;;;;6384202;22;20251;-80
2024/04/13 02:53:39;;;;;;;1999.90;999.90;;;12.10;88.30;;;;;;6383933;22;20250;-80
2024/04/13 02:56:06;;;;;;;1999.90;999.90;;;12.10;88.20;;;;;;6382538;22;20566;-80
2024/04/13 02:58:32;;;;;;;1999.90;999.90;;;12.10;88.10;;;;;;6384576;22;20536;-80
2024/04/13 03:01:02;;;;;;;1999.90;999.90;;;12.10;88.00;;;;;;6384214;22;20227;-80
2024/04/13 03:03:28;;;;;;;1999.90;999.90;;;12.00;87.80;;;;;;6384359;22;20259;-81
2024/04/13 03:05:57;;;;;;;1999.90;999.90;;;12.00;87.70;;;;;;6427954;22;20239;-80
2024/04/13 03:08:23;;;;;;;1999.90;999.90;;;11.90;87.60;;;;;;6428725;22;20219;-79
2024/04/13 03:10:57;;;;;;;1999.90;999.90;;;11.90;87.50;;;;;;6383480;22;20570;-80
2024/04/13 03:13:23;;;;;;;1999.90;999.90;;;11.90;87.50;;;;;;6427720;22;20223;-81
2024/04/13 03:16:03;;;;;;;1999.90;999.90;;;11.90;87.40;;;;;;6383461;22;20286;-80
2024/04/13 03:18:30;;;;;;;1999.90;999.90;;;11.80;87.40;;;;;;6384112;22;20330;-80
2024/04/13 03:20:57;;;;;;;1999.90;999.90;;;11.80;87.40;;;;;;6383437;22;20250;-80
2024/04/13 03:23:23;;;;;;;1999.90;999.90;;;11.80;87.50;;;;;;6427246;22;20717;-80
2024/04/13 03:25:49;;;;;;;1999.90;999.90;;;11.80;87.70;;;;;;6392274;22;20291;-80
2024/04/13 03:28:15;;;;;;;1999.90;999.90;;;11.80;87.80;;;;;;6431078;22;20254;-80
2024/04/13 03:30:40;;;;;;;1999.90;999.90;;;11.70;88.00;;;;;;6432051;22;20219;-80
2024/04/13 03:33:06;;;;;;;1999.90;999.90;;;11.70;88.40;;;;;;6429734;22;20651;-82
2024/04/13 03:35:36;;;;;;;1999.90;999.90;;;11.70;88.80;;;;;;6429448;22;20251;-80
2024/04/13 03:38:01;;;;;;;1999.90;999.90;;;11.70;89.10;;;;;;6428803;22;20279;-80
2024/04/13 03:40:27;;;;;;;1999.90;999.90;;;11.70;89.20;;;;;;6429445;22;20231;-81
2024/04/13 03:42:53;;;;;;;1999.90;999.90;;;11.80;89.30;;;;;;6431878;22;20540;-80
2024/04/13 03:45:18;;;;;;;1999.90;999.90;;;11.80;89.10;;;;;;6431147;22;20251;-80
2024/04/13 03:47:44;;;;;;;1999.90;999.90;;;11.80;88.90;;;;;;6427438;22;20223;-80
2024/04/13 03:50:10;;;;;;;1999.90;999.90;;;11.80;88.80;;;;;;6428902;22;20339;-80
2024/04/13 03:52:35;;;;;;;1999.90;999.90;;;11.80;88.70;;;;;;6430653;22;20258;-80
2024/04/13 03:55:04;;;;;;;1999.90;999.90;;;11.80;88.60;;;;;;6431475;22;20231;-80
2024/04/13 03:57:32;;;;;;;1999.90;999.90;;;11.80;88.50;;;;;;6427450;22;20322;-81
2024/04/13 03:59:58;;;;;;;1999.90;999.90;;;11.80;88.50;;;;;;6428920;22;20258;-80
2024/04/13 04:02:24;;;;;;;1999.90;999.90;;;11.80;88.60;;;;;;6429617;22;20219;-80
2024/04/13 04:04:49;;;;;;;1999.90;999.90;;;11.80;88.70;;;;;;6432986;22;20227;-80
2024/04/13 04:07:15;;;;;;;1999.90;999.90;;;11.80;88.70;;;;;;6431992;22;20232;-80
2024/04/13 04:09:40;;;;;;;1999.90;999.90;;;11.80;88.60;;;;;;6430509;22;20254;-79
2024/04/13 04:12:06;;;;;;;1999.90;999.90;;;11.80;88.50;;;;;;6433188;22;20541;-80
2024/04/13 04:14:32;;;;;;;1999.90;999.90;;;11.70;88.40;;;;;;6434236;22;20247;-80
2024/04/13 04:16:58;;;;;;;1999.90;999.90;;;11.70;88.30;;;;;;6430275;22;20257;-80
2024/04/13 04:19:23;;;;;;;1999.90;999.90;;;11.70;88.10;;;;;;6433366;22;20215;-80
2024/04/13 04:21:49;;;;;;;1999.90;999.90;;;11.60;88.00;;;;;;6430084;22;20707;-80
2024/04/13 04:24:15;;;;;;;1999.90;999.90;;;11.60;88.00;;;;;;6429914;22;20273;-81
2024/04/13 04:26:41;;;;;;;1999.90;999.90;;;11.50;87.80;;;;;;6427981;22;20231;-80
2024/04/13 04:29:06;;;;;;;1999.90;999.90;;;11.50;87.80;;;;;;6431349;22;20223;-80
2024/04/13 04:31:32;;;;;;;1999.90;999.90;;;11.40;87.80;;;;;;6432116;22;20223;-80
2024/04/13 04:33:58;;;;;;;1999.90;999.90;;;11.40;87.90;;;;;;6431847;22;20311;-80
2024/04/13 04:36:24;;;;;;;1999.90;999.90;;;11.30;88.00;;;;;;6432056;22;20215;-80
2024/04/13 04:38:50;;;;;;;1999.90;999.90;;;11.30;88.00;;;;;;6432434;22;20290;-79
2024/04/13 04:41:16;;;;;;;1999.90;999.90;;;11.30;88.10;;;;;;6433107;22;20271;-81
2024/04/13 04:43:41;;;;;;;1999.90;999.90;;;11.30;88.10;;;;;;6432542;22;20264;-80
2024/04/13 04:46:08;;;;;;;1999.90;999.90;;;11.30;88.00;;;;;;6431640;22;20298;-80
2024/04/13 04:48:35;;;;;;;1999.90;999.90;;;11.30;87.90;;;;;;6432351;22;20279;-81
2024/04/13 04:51:02;;;;;;;1999.90;999.90;;;11.30;88.00;;;;;;6433125;22;20227;-81
2024/04/13 04:53:28;;;;;;;1999.90;999.90;;;11.30;87.90;;;;;;6430777;22;20223;-78
2024/04/13 04:55:58;;;;;;;1999.90;999.90;;;11.20;87.90;;;;;;6433118;22;20362;-79
2024/04/13 04:58:24;;;;;;;1999.90;999.90;;;11.20;87.90;;;;;;6432849;22;20219;-81
2024/04/13 05:00:50;;;;;;;1999.90;999.90;;;11.30;87.90;;;;;;6432464;22;20308;-80
2024/04/13 05:03:15;;;;;;;1999.90;999.90;;;11.30;87.80;;;;;;6432409;22;20604;-80
2024/04/13 05:05:42;;;;;;;1999.90;999.90;;;11.30;87.80;;;;;;6432822;22;20336;-80
2024/04/13 05:08:08;;;;;;;1999.90;999.90;;;11.20;87.70;;;;;;6428724;22;20240;-80
2024/04/13 05:10:37;;;;;;;1999.90;999.90;;;11.30;87.70;;;;;;6432152;22;20222;-80
2024/04/13 05:13:03;;;;;;;1999.90;999.90;;;11.20;87.60;;;;;;6430171;22;20234;-80
2024/04/13 05:15:28;;;;;;;1999.90;999.90;;;11.30;87.60;;;;;;6433170;22;20363;-80
2024/04/13 05:17:55;;;;;;;1999.90;999.90;;;11.30;87.60;;;;;;6429224;22;20231;-80
2024/04/13 05:20:21;;;;;;;1999.90;999.90;;;11.30;87.60;;;;;;6432415;22;20750;-80
2024/04/13 05:22:47;;;;;;;1999.90;999.90;;;11.40;87.60;;;;;;6430545;22;20330;-79
2024/04/13 05:25:13;;;;;;;1999.90;999.90;;;11.40;87.60;;;;;;6430458;22;20321;-81
2024/04/13 05:27:39;;;;;;;1999.90;999.90;;;11.40;87.60;;;;;;6430851;22;20225;-80
2024/04/13 05:30:06;;;;;;;1999.90;999.90;;;11.50;87.60;;;;;;6431977;22;20223;-80
2024/04/13 05:32:33;;;;;;;1999.90;999.90;;;11.50;87.50;;;;;;6432516;22;20219;-80
2024/04/13 05:34:59;;;;;;;1999.90;999.90;;;11.60;87.70;;;;;;6387291;22;20738;-80
2024/04/13 05:37:25;;;;;;;1999.90;999.90;;;11.60;87.70;;;;;;6431241;22;20530;-80
2024/04/13 05:39:51;;;;;;;1999.90;999.90;;;11.70;88.00;;;;;;6389951;22;20228;-80
2024/04/13 05:42:16;;;;;;;1999.90;999.90;;;11.80;88.20;;;;;;6393881;22;20270;-80
2024/04/13 05:44:42;;;;;;;1999.90;999.90;;;11.90;88.40;;;;;;6389553;22;20243;-80
2024/04/13 05:47:08;;;;;;;1999.90;999.90;;;12.00;88.40;;;;;;6433082;22;20283;-80
2024/04/13 05:49:34;;;;;;;1999.90;999.90;;;12.20;88.30;;;;;;6391284;22;20563;-80
2024/04/13 05:52:00;;;;;;;1999.90;999.90;;;12.30;88.40;;;;;;6434397;22;20212;-79
2024/04/13 05:54:25;;;;;;;1999.90;999.90;;;12.50;88.40;;;;;;6392171;22;20289;-80
2024/04/13 05:56:54;;;;;;;1999.90;999.90;;;12.60;88.60;;;;;;6391703;22;20690;-80
2024/04/13 05:59:20;;;;;;;1999.90;999.90;;;12.80;89.00;;;;;;6435380;22;20227;-80
2024/04/13 06:01:45;;;;;;;1999.90;999.90;;;12.90;89.20;;;;;;6436814;22;20319;-80
2024/04/13 06:04:11;;;;;;;1999.90;999.90;;;13.10;89.50;;;;;;6392317;22;20239;-80
2024/04/13 06:06:37;;;;;;;1999.90;999.90;;;13.30;89.60;;;;;;6434383;22;20270;-80
2024/04/13 06:09:03;;;;;;;1999.90;999.90;;;13.50;89.50;;;;;;6389712;22;20227;-80
2024/04/13 06:11:28;;;;;;;1999.90;999.90;;;13.50;89.30;;;;;;6438819;22;20223;-80
2024/04/13 06:13:54;;;;;;;1999.90;999.90;;;13.60;89.50;;;;;;6440642;22;20215;-81
2024/04/13 06:16:20;;;;;;;1999.90;999.90;;;13.70;90.10;;;;;;6391972;22;20228;-80
2024/04/13 06:18:45;;;;;;;1999.90;999.90;;;13.90;89.60;;;;;;6392828;22;20704;-80
2024/04/13 06:21:11;;;;;;;1999.90;999.90;;;14.00;89.70;;;;;;6436271;22;20227;-80
2024/04/13 06:23:38;;;;;;;1999.90;999.90;;;14.20;89.80;;;;;;6435491;22;20267;-80
2024/04/13 06:26:05;;;;;;;1999.90;999.90;;;14.40;89.90;;;;;;6401074;22;20239;-81
2024/04/13 06:28:31;;;;;;;1999.90;999.90;;;14.60;89.90;;;;;;6436878;22;20295;-81
2024/04/13 06:30:57;;;;;;;1999.90;999.90;;;14.80;89.90;;;;;;6440207;22;20690;-79
2024/04/13 06:33:23;;;;;;;1999.90;999.90;;;15.10;89.80;;;;;;6441778;22;20326;-81
2024/04/13 06:35:49;;;;;;;1999.90;999.90;;;15.30;89.60;;;;;;6441023;22;20228;-80
2024/04/13 06:38:23;;;;;;;1999.90;999.90;;;15.50;89.40;;;;;;6438573;22;20228;-81
2024/04/13 06:40:49;;;;;;;1999.90;999.90;;;15.70;89.20;;;;;;6439347;22;20241;-80
2024/04/13 06:43:15;;;;;;;1999.90;999.90;;;15.90;89.00;;;;;;6439322;22;20260;-79
2024/04/13 06:45:41;;;;;;;1999.90;999.90;;;16.20;88.80;;;;;;6439913;22;20272;-80
2024/04/13 06:48:07;;;;;;;1999.90;999.90;;;16.40;88.50;;;;;;6437596;22;20229;-80
2024/04/13 06:50:32;;;;;;;1999.90;999.90;;;16.60;88.20;;;;;;6441695;22;20219;-81
2024/04/13 06:52:58;;;;;;;1999.90;999.90;;;16.90;88.10;;;;;;6437739;22;20224;-82
2024/04/13 06:55:24;;;;;;;1999.90;999.90;;;17.10;87.90;;;;;;6434154;22;20280;-81
2024/04/13 06:57:50;;;;;;;1999.90;999.90;;;17.20;87.60;;;;;;6436579;22;20263;-81
2024/04/13 07:00:16;;;;;;;1999.90;999.90;;;17.40;87.50;;;;;;6433364;22;20234;-81
2024/04/13 07:02:43;;;;;;;1999.90;999.90;;;17.60;87.50;;;;;;6431673;22;20325;-81
2024/04/13 07:05:10;;;;;;;1999.90;999.90;;;17.80;87.60;;;;;;6432812;22;20272;-81
2024/04/13 07:07:36;;;;;;;1999.90;999.90;;;18.10;87.50;;;;;;6429648;22;20246;-80
2024/04/13 07:10:02;;;;;;;1999.90;999.90;;;18.40;87.90;;;;;;6432903;22;20225;-81
2024/04/13 07:12:29;;;;;;;1999.90;999.90;;;18.60;86.60;;;;;;6433374;22;20253;-83
2024/04/13 07:14:54;;;;;;;1999.90;999.90;;;18.70;86.00;;;;;;6431457;22;20274;-79
2024/04/13 07:17:20;;;;;;;1999.90;999.90;;;18.80;85.80;;;;;;6431914;22;20222;-82
2024/04/13 07:19:45;;;;;;;1999.90;999.90;;;18.90;85.80;;;;;;6431680;22;20318;-81
2024/04/13 07:22:11;;;;;;;1999.90;999.90;;;18.90;85.70;;;;;;6431628;22;20258;-81
2024/04/13 07:24:37;;;;;;;1999.90;999.90;;;19.10;85.90;;;;;;6433425;22;20282;-81
2024/04/13 07:27:04;;;;;;;1999.90;999.90;;;19.20;85.70;;;;;;6431378;22;20726;-81
2024/04/13 07:29:29;;;;;;;1999.90;999.90;;;19.40;85.70;;;;;;6388775;22;20566;-81
2024/04/13 07:31:55;;;;;;;1999.90;999.90;;;19.50;85.00;;;;;;6432109;22;20223;-81
2024/04/13 07:34:21;;;;;;;1999.90;999.90;;;19.60;84.90;;;;;;6433316;22;20745;-81
2024/04/13 07:36:46;;;;;;;1999.90;999.90;;;19.80;84.60;;;;;;6433849;22;20223;-81
2024/04/13 07:39:12;;;;;;;1999.90;999.90;;;19.90;84.30;;;;;;6432578;22;20254;-81
2024/04/13 07:41:39;;;;;;;1999.90;999.90;;;20.00;84.10;;;;;;6389401;22;20223;-81
2024/04/13 07:44:04;;;;;;;1999.90;999.90;;;20.10;83.80;;;;;;6433347;22;20270;-83
2024/04/13 07:46:31;;;;;;;1999.90;999.90;;;20.20;83.50;;;;;;6432344;22;20280;-82
2024/04/13 07:48:57;;;;;;;1999.90;999.90;;;20.40;83.80;;;;;;6432804;22;20278;-81
2024/04/13 07:51:23;;;;;;;1999.90;999.90;;;20.80;84.10;;;;;;6390019;22;20227;-81
2024/04/13 07:53:48;;;;;;;1999.90;999.90;;;21.10;83.20;;;;;;6434030;22;20307;-82
2024/04/13 07:56:14;;;;;;;1999.90;999.90;;;21.50;82.40;;;;;;6432218;22;20797;-81
2024/04/13 07:58:41;;;;;;;1999.90;999.90;;;21.80;81.50;;;;;;6390282;22;20612;-82
2024/04/13 08:01:06;;;;;;;1999.90;999.90;;;22.20;80.60;;;;;;6432894;22;20267;-82
2024/04/13 08:03:32;;;;;;;1999.90;999.90;;;22.40;80.10;;;;;;6389651;22;20230;-82
2024/04/13 08:05:58;;;;;;;1999.90;999.90;;;22.60;79.40;;;;;;6432445;22;20260;-80
2024/04/13 08:08:23;;;;;;;1999.90;999.90;;;22.60;78.90;;;;;;6432681;22;20301;-82
2024/04/13 08:10:49;;;;;;;1999.90;999.90;;;22.60;79.20;;;;;;6432627;22;20269;-82
2024/04/13 08:13:15;;;;;;;1999.90;999.90;;;22.70;79.60;;;;;;6389877;22;20275;-83
2024/04/13 08:15:41;;;;;;;1999.90;999.90;;;22.90;79.20;;;;;;6395822;22;20243;-82
2024/04/13 08:18:07;;;;;;;1999.90;999.90;;;23.10;79.50;;;;;;6430534;22;20232;-82
2024/04/13 08:20:33;;;;;;;1999.90;999.90;;;23.30;78.40;;;;;;6387729;22;20266;-82
2024/04/13 08:23:00;;;;;;;1999.90;999.90;;;23.50;77.30;;;;;;6387513;22;20238;-82
2024/04/13 08:25:27;;;;;;;1999.90;999.90;;;23.70;77.10;;;;;;6431363;22;20243;-82
2024/04/13 08:27:52;;;;;;;1999.90;999.90;;;23.90;76.40;;;;;;6385992;22;20231;-82
2024/04/13 08:30:18;;;;;;;1999.90;999.90;;;24.00;76.10;;;;;;6430919;22;20308;-82
2024/04/13 08:32:48;;;;;;;1999.90;999.90;;;24.10;75.90;;;;;;6386368;22;20718;-82
2024/04/13 08:35:13;;;;;;;1999.90;999.90;;;24.20;75.50;;;;;;6386569;22;20782;-83
2024/04/13 08:37:39;;;;;;;1999.90;999.90;;;24.40;74.30;;;;;;6430286;22;20223;-83
2024/04/13 08:40:05;;;;;;;1999.90;999.90;;;24.60;73.70;;;;;;6431173;22;20227;-82
2024/04/13 08:42:34;;;;;;;1999.90;999.90;;;24.70;73.80;;;;;;6431180;22;20269;-82
2024/04/13 08:45:00;;;;;;;1999.90;999.90;;;24.70;73.50;;;;;;6430792;22;20274;-81
2024/04/13 08:47:31;;;;;;;1999.90;999.90;;;24.90;73.30;;;;;;6385713;22;20302;-81
2024/04/13 08:49:59;;;;;;;1999.90;999.90;;;25.10;73.10;;;;;;6386743;22;20231;-84
2024/04/13 08:52:26;;;;;;;1999.90;999.90;;;25.10;71.40;;;;;;6430579;22;20261;-82
2024/04/13 08:54:52;;;;;;;1999.90;999.90;;;25.20;71.20;;;;;;6430307;22;20587;-82
2024/04/13 08:57:25;;;;;;;1999.90;999.90;;;25.40;70.70;;;;;;6386053;22;20239;-81
2024/04/13 08:59:52;;;;;;;1999.90;999.90;;;25.60;69.20;;;;;;6386999;22;20227;-82
2024/04/13 09:02:22;;;;;;;1999.90;999.90;;;25.80;68.90;;;;;;6387317;22;20343;-82
2024/04/13 09:04:52;;;;;;;1999.90;999.90;;;26.10;68.10;;;;;;6430056;22;20818;-82
2024/04/13 09:07:20;;;;;;;1999.90;999.90;;;26.20;67.20;;;;;;6430003;22;20223;-82
2024/04/13 09:09:48;;;;;;;1999.90;999.90;;;26.30;66.90;;;;;;6430665;22;20223;-81
2024/04/13 09:12:14;;;;;;;1999.90;999.90;;;26.50;66.40;;;;;;6387068;22;20262;-80
2024/04/13 09:14:41;;;;;;;1999.90;999.90;;;26.70;65.70;;;;;;6387196;22;20277;-81
2024/04/13 09:17:07;;;;;;;1999.90;999.90;;;26.90;65.10;;;;;;6386416;22;20523;-81
2024/04/13 09:19:33;;;;;;;1999.90;999.90;;;27.00;64.50;;;;;;6386753;22;20223;-82
2024/04/13 09:21:58;;;;;;;1999.90;999.90;;;27.10;64.10;;;;;;6432005;22;20302;-82
2024/04/13 09:24:24;;;;;;;1999.90;999.90;;;27.30;63.50;;;;;;6432444;22;20239;-82
2024/04/13 09:26:51;;;;;;;1999.90;999.90;;;27.50;63.40;;;;;;6452679;21;20288;-73
2024/04/13 09:29:27;;;;;;;1999.90;999.90;;;27.80;63.00;;;;;;6474495;22;20325;-73
2024/04/13 09:31:53;;;;;;;1999.90;999.90;;;28.10;62.10;;;;;;6476346;22;20218;-73
2024/04/13 09:34:19;;;;;;;1999.90;999.90;;;28.30;61.80;;;;;;6475798;22;20234;-73
2024/04/13 09:36:47;;;;;;;1999.90;999.90;;;28.50;61.50;;;;;;6474978;22;20344;-73
2024/04/13 09:39:23;;;;;;;1999.90;999.90;;;28.70;60.90;;;;;;6476089;22;20249;-73
2024/04/13 09:41:49;;;;;;;1999.90;999.90;;;29.00;60.10;;;;;;6476822;22;20268;-73
2024/04/13 09:44:27;;;;;;;1999.90;999.90;;;29.30;59.70;;;;;;6476455;22;20214;-74
2024/04/13 09:46:53;;;;;;;1999.90;999.90;;;29.50;58.80;;;;;;6475652;22;20304;-74
2024/04/13 09:49:19;;;;;;;1999.90;999.90;;;29.70;58.40;;;;;;6476218;22;20214;-73
2024/04/13 09:51:46;;;;;;;1999.90;999.90;;;29.80;57.70;;;;;;6476435;22;20219;-73
2024/04/13 09:54:13;;;;;;;1999.90;999.90;;;29.60;57.90;;;;;;6476625;22;20261;-73
2024/04/13 09:56:41;;;;;;;1999.90;999.90;;;29.50;58.40;;;;;;6430930;22;20242;-74
2024/04/13 09:59:09;;;;;;;1999.90;999.90;;;29.60;58.10;;;;;;6476240;22;20537;-74
2024/04/13 10:01:35;;;;;;;1999.90;999.90;;;29.60;57.90;;;;;;6476316;22;20611;-73
2024/04/13 10:04:00;;;;;;;1999.90;999.90;;;29.60;57.60;;;;;;6476134;22;20214;-74
2024/04/13 10:06:29;;;;;;;1999.90;999.90;;;29.70;57.70;;;;;;6474827;22;20345;-74
2024/04/13 10:08:55;;;;;;;1999.90;999.90;;;29.90;57.00;;;;;;6476612;22;20214;-74
2024/04/13 10:11:23;;;;;;;1999.90;999.90;;;29.90;56.50;;;;;;6476751;22;20215;-74
2024/04/13 10:13:50;;;;;;;1999.90;999.90;;;29.90;56.10;;;;;;6476461;22;20264;-74
2024/04/13 10:16:16;;;;;;;1999.90;999.90;;;30.00;55.70;;;;;;6474952;22;20226;-74
2024/04/13 10:18:43;;;;;;;1999.90;999.90;;;30.00;55.80;;;;;;6476769;22;20674;-74
2024/04/13 10:21:12;;;;;;;1999.90;999.90;;;30.20;55.80;;;;;;6432102;22;20535;-73
2024/04/13 10:23:45;;;;;;;1999.90;999.90;;;30.30;56.50;;;;;;6476570;22;20218;-74
2024/04/13 10:26:10;;;;;;;1999.90;999.90;;;30.50;55.90;;;;;;6430673;22;20238;-73
2024/04/13 10:28:37;;;;;;;1999.90;999.90;;;30.60;55.40;;;;;;6475638;22;20625;-74
2024/04/13 10:31:03;;;;;;;1999.90;999.90;;;30.60;55.30;;;;;;6475754;22;20248;-74
2024/04/13 10:33:32;;;;;;;1999.90;999.90;;;30.70;55.00;;;;;;6475999;22;20214;-73
2024/04/13 10:36:00;;;;;;;1999.90;999.90;;;30.80;54.40;;;;;;6475396;22;20576;-74
2024/04/13 10:38:31;;;;;;;1999.90;999.90;;;31.00;54.30;;;;;;6431593;22;20222;-74
2024/04/13 10:40:57;;;;;;;1999.90;999.90;;;31.10;53.90;;;;;;6477143;22;20318;-74
2024/04/13 10:43:25;;;;;;;1999.90;999.90;;;31.20;53.60;;;;;;6476303;22;20211;-74
2024/04/13 10:45:51;;;;;;;1999.90;999.90;;;31.50;53.60;;;;;;6476322;22;20604;-74
2024/04/13 10:48:21;;;;;;;1999.90;999.90;;;31.50;53.00;;;;;;6474613;22;20334;-73
2024/04/13 10:50:51;;;;;;;1999.90;999.90;;;31.50;52.70;;;;;;6476029;22;20260;-74
2024/04/13 10:53:19;;;;;;;1999.90;999.90;;;31.60;52.60;;;;;;6476057;22;20218;-73
2024/04/13 10:55:45;;;;;;;1999.90;999.90;;;31.70;52.50;;;;;;6476002;22;20272;-74
2024/04/13 10:58:11;;;;;;;1999.90;999.90;;;31.90;52.50;;;;;;6474125;22;20215;-73
2024/04/13 11:00:37;;;;;;;1999.90;999.90;;;32.20;52.10;;;;;;6476083;22;20226;-74
2024/04/13 11:03:03;;;;;;;1999.90;999.90;;;32.20;51.30;;;;;;6476359;22;20218;-73
2024/04/13 11:05:29;;;;;;;1999.90;999.90;;;32.40;51.40;;;;;;6476111;22;20226;-74
2024/04/13 11:07:55;;;;;;;1999.90;999.90;;;32.40;49.60;;;;;;6474538;22;20222;-74
2024/04/13 11:10:21;;;;;;;1999.90;999.90;;;32.50;49.70;;;;;;6475648;22;20214;-74
2024/04/13 11:12:49;;;;;;;1999.90;999.90;;;32.70;49.40;;;;;;6475797;22;20218;-74
2024/04/13 11:15:15;;;;;;;1999.90;999.90;;;32.90;49.30;;;;;;6475727;22;20290;-74
2024/04/13 11:17:41;;;;;;;1999.90;999.90;;;33.10;49.00;;;;;;6429657;22;20273;-73
2024/04/13 11:20:07;;;;;;;1999.90;999.90;;;33.30;49.00;;;;;;6475773;22;20741;-73
2024/04/13 11:22:33;;;;;;;1999.90;999.90;;;33.40;48.40;;;;;;6475484;22;20269;-74
2024/04/13 11:25:01;;;;;;;1999.90;999.90;;;33.40;47.80;;;;;;6475792;22;20223;-73
2024/04/13 11:27:26;;;;;;;1999.90;999.90;;;33.50;48.00;;;;;;6516260;22;20601;-74
2024/04/13 11:29:52;;;;;;;1999.90;999.90;;;33.70;47.20;;;;;;6481509;22;20221;-74
2024/04/13 11:32:18;;;;;;;1999.90;999.90;;;33.70;46.90;;;;;;6526751;22;20218;-73
2024/04/13 11:34:44;;;;;;;1999.90;999.90;;;33.70;46.60;;;;;;6527401;22;20221;-74
2024/04/13 11:37:10;;;;;;;1999.90;999.90;;;33.80;46.70;;;;;;6525511;21;20225;-73
2024/04/13 11:39:40;;;;;;;1999.90;999.90;;;34.00;46.30;;;;;;6526975;22;20260;-73
2024/04/13 11:42:07;;;;;;;1999.90;999.90;;;34.30;45.80;;;;;;6526996;22;20513;-74
2024/04/13 11:44:41;;;;;;;1999.90;999.90;;;34.20;45.30;;;;;;6527016;22;20217;-74
2024/04/13 11:47:08;;;;;;;1999.90;999.90;;;34.10;45.00;;;;;;6525553;21;20266;-74
2024/04/13 11:49:34;;;;;;;1999.90;999.90;;;34.20;45.10;;;;;;6526945;22;20336;-73
2024/04/13 11:52:00;;;;;;;1999.90;999.90;;;34.00;44.70;;;;;;6481847;22;20229;-73
2024/04/13 11:54:27;;;;;;;1999.90;999.90;;;33.90;45.10;;;;;;6527147;22;20217;-73
2024/04/13 11:56:54;;;;;;;1999.90;999.90;;;33.80;45.00;;;;;;6525436;21;20271;-73
2024/04/13 11:59:21;;;;;;;1999.90;999.90;;;34.00;45.40;;;;;;6526589;22;20308;-73
2024/04/13 12:01:47;;;;;;;1999.90;999.90;;;34.20;44.90;;;;;;6481700;22;20556;-73